createdAt,value
2019-04-16T00:00:45.018Z,99.90
2019-04-16T00:03:13.430Z,99.90
2019-04-16T00:05:49.766Z,99.90
2019-04-16T00:08:27.843Z,99.90
2019-04-16T00:10:57.179Z,99.90
2019-04-16T00:13:27.222Z,99.90
2019-04-16T00:15:56.117Z,99.90
2019-04-16T00:18:24.610Z,99.90
2019-04-16T00:21:10.951Z,99.90
2019-04-16T00:23:57.370Z,99.90
2019-04-16T00:26:26.841Z,99.90
2019-04-16T00:28:55.949Z,99.90
2019-04-16T00:31:24.426Z,99.90
2019-04-16T00:33:52.846Z,99.90
2019-04-16T00:36:21.241Z,99.90
2019-04-16T00:38:53.849Z,99.90
2019-04-16T00:41:20.069Z,99.90
2019-04-16T00:43:48.463Z,99.90
2019-04-16T00:46:16.872Z,99.90
2019-04-16T00:48:45.266Z,99.90
2019-04-16T00:51:13.666Z,99.90
2019-04-16T00:53:42.099Z,99.90
2019-04-16T00:56:10.518Z,99.90
2019-04-16T00:58:38.899Z,99.90
2019-04-16T01:01:07.347Z,99.90
2019-04-16T01:03:35.750Z,99.90
2019-04-16T01:06:07.152Z,99.90
2019-04-16T01:08:34.435Z,99.90
2019-04-16T01:11:02.838Z,99.90
2019-04-16T01:13:31.246Z,99.90
2019-04-16T01:16:02.513Z,99.90
2019-04-16T01:18:29.780Z,99.90
2019-04-16T01:20:58.325Z,99.90
2019-04-16T01:23:26.767Z,99.90
2019-04-16T01:25:56.158Z,99.90
2019-04-16T01:28:26.278Z,99.90
2019-04-16T01:30:56.324Z,99.90
2019-04-16T01:33:29.062Z,99.90
2019-04-16T01:35:59.102Z,99.90
2019-04-16T01:38:31.794Z,99.90
2019-04-16T01:41:01.867Z,99.90
2019-04-16T01:43:30.259Z,99.90
2019-04-16T01:46:01.454Z,99.90
2019-04-16T01:48:28.803Z,99.90
2019-04-16T01:50:57.208Z,99.90
2019-04-16T01:53:25.611Z,99.90
2019-04-16T01:55:56.776Z,99.90
2019-04-16T01:58:24.213Z,99.90
2019-04-16T02:00:52.612Z,99.90
2019-04-16T02:03:21.082Z,99.90
2019-04-16T02:05:49.491Z,99.90
2019-04-16T02:08:17.950Z,99.90
2019-04-16T02:10:46.446Z,99.90
2019-04-16T02:13:15.910Z,99.90
2019-04-16T02:15:44.482Z,99.90
2019-04-16T02:18:12.891Z,99.90
2019-04-16T02:20:41.552Z,99.90
2019-04-16T02:23:09.998Z,99.90
2019-04-16T02:25:38.490Z,99.90
2019-04-16T02:28:06.899Z,99.90
2019-04-16T02:30:39.071Z,99.90
2019-04-16T02:33:05.436Z,99.90
2019-04-16T02:35:33.852Z,99.90
2019-04-16T02:38:02.643Z,99.90
2019-04-16T02:40:31.135Z,99.90
2019-04-16T02:43:03.919Z,99.90
2019-04-16T02:45:29.868Z,99.90
2019-04-16T02:47:58.267Z,99.90
2019-04-16T02:50:32.195Z,99.90
2019-04-16T02:53:02.444Z,99.90
2019-04-16T02:55:42.629Z,99.90
2019-04-16T02:58:10.396Z,99.90
2019-04-16T03:00:56.667Z,99.90
2019-04-16T03:03:26.714Z,99.90
2019-04-16T03:06:00.707Z,99.90
2019-04-16T03:08:26.986Z,99.90
2019-04-16T03:10:55.407Z,99.90
2019-04-16T03:13:24.041Z,99.90
2019-04-16T03:15:56.896Z,99.90
2019-04-16T03:18:26.955Z,99.90
2019-04-16T03:20:56.539Z,99.90
2019-04-16T03:23:25.045Z,99.90
2019-04-16T03:25:53.941Z,99.90
2019-04-16T03:28:23.603Z,99.90
2019-04-16T03:30:52.502Z,99.90
2019-04-16T03:33:20.971Z,99.90
2019-04-16T03:35:49.362Z,99.90
2019-04-16T03:38:17.762Z,99.90
2019-04-16T03:40:46.183Z,99.90
2019-04-16T03:43:14.590Z,99.90
2019-04-16T03:45:42.985Z,99.90
2019-04-16T03:48:11.398Z,99.90
2019-04-16T03:50:39.796Z,99.90
2019-04-16T03:53:08.196Z,99.90
2019-04-16T03:55:36.614Z,99.90
2019-04-16T03:58:06.264Z,99.90
2019-04-16T04:00:35.148Z,99.90
2019-04-16T04:03:03.689Z,99.90
2019-04-16T04:05:34.978Z,99.90
2019-04-16T04:08:02.240Z,99.90
2019-04-16T04:10:34.224Z,99.90
2019-04-16T04:13:00.763Z,99.90
2019-04-16T04:15:29.163Z,99.90
2019-04-16T04:17:57.562Z,99.90
2019-04-16T04:20:25.975Z,99.90
2019-04-16T04:22:56.945Z,99.90
2019-04-16T04:25:24.499Z,99.90
2019-04-16T04:27:52.924Z,99.90
2019-04-16T04:30:25.775Z,99.90
2019-04-16T04:32:53.079Z,99.90
2019-04-16T04:35:22.328Z,99.90
2019-04-16T04:37:50.759Z,99.90
2019-04-16T04:40:19.163Z,99.90
2019-04-16T04:42:47.655Z,99.90
2019-04-16T04:45:16.063Z,99.90
2019-04-16T04:47:44.511Z,99.90
2019-04-16T04:50:12.990Z,99.90
2019-04-16T04:52:43.218Z,99.90
2019-04-16T04:55:11.675Z,99.90
2019-04-16T04:57:40.077Z,99.90
2019-04-16T05:00:09.539Z,99.90
2019-04-16T05:02:38.201Z,99.90
2019-04-16T05:05:17.751Z,99.90
2019-04-16T05:07:46.178Z,99.90
2019-04-16T05:10:14.595Z,99.90
2019-04-16T05:12:42.999Z,99.90
2019-04-16T05:15:11.782Z,99.90
2019-04-16T05:17:40.183Z,99.90
2019-04-16T05:22:42.455Z,99.90
2019-04-16T05:25:10.994Z,99.90
2019-04-16T05:27:41.231Z,99.90
2019-04-16T05:30:10.097Z,99.90
2019-04-16T05:32:38.787Z,99.90
2019-04-16T05:35:10.184Z,99.90
2019-04-16T05:37:37.477Z,99.90
2019-04-16T05:40:07.418Z,99.90
2019-04-16T05:42:35.810Z,99.90
2019-04-16T05:45:06.526Z,99.90
2019-04-16T05:47:35.002Z,99.90
2019-04-16T05:50:03.683Z,99.90
2019-04-16T05:52:35.503Z,99.90
2019-04-16T05:55:22.076Z,99.90
2019-04-16T05:57:52.173Z,99.90
2019-04-16T06:00:22.384Z,99.90
2019-04-16T06:02:50.865Z,99.90
2019-04-16T06:05:19.612Z,99.90
2019-04-16T06:07:48.051Z,99.90
2019-04-16T06:10:17.822Z,99.90
2019-04-16T06:13:04.313Z,99.90
2019-04-16T06:15:40.362Z,99.90
2019-04-16T06:18:19.384Z,99.90
2019-04-16T06:21:01.894Z,99.90
2019-04-16T06:23:32.745Z,99.90
2019-04-16T06:26:19.663Z,99.90
2019-04-16T06:29:05.819Z,99.90
2019-04-16T06:31:41.720Z,99.90
2019-04-16T06:34:28.010Z,99.90
2019-04-16T06:36:58.270Z,99.90
2019-04-16T06:39:40.311Z,99.90
2019-04-16T06:42:12.960Z,99.90
2019-04-16T06:44:42.999Z,99.90
2019-04-16T06:47:13.038Z,99.90
2019-04-16T06:49:51.172Z,99.90
2019-04-16T06:52:27.082Z,99.90
2019-04-16T06:55:00.562Z,99.90
2019-04-16T06:57:48.423Z,99.90
2019-04-16T07:00:35.299Z,99.90
2019-04-16T07:03:25.862Z,99.90
2019-04-16T07:06:03.935Z,99.90
2019-04-16T07:08:51.130Z,99.90
2019-04-16T07:11:21.174Z,99.90
2019-04-16T07:13:49.587Z,99.90
2019-04-16T07:16:17.988Z,99.90
2019-04-16T07:18:46.930Z,99.90
2019-04-16T07:21:17.551Z,99.90
2019-04-16T07:23:46.884Z,99.90
2019-04-16T07:26:15.720Z,99.90
2019-04-16T07:28:45.915Z,99.90
2019-04-16T07:31:32.746Z,99.90
2019-04-16T07:33:59.270Z,99.90
2019-04-16T07:36:32.203Z,99.90
2019-04-16T07:39:05.080Z,99.90
2019-04-16T07:41:50.348Z,99.90
2019-04-16T07:44:23.095Z,99.40
2019-04-16T07:47:05.171Z,99.70
2019-04-16T07:49:35.227Z,97.60
2019-04-16T07:52:17.251Z,97.60
2019-04-16T07:55:02.343Z,96.90
2019-04-16T07:57:30.749Z,97.20
2019-04-16T07:59:59.155Z,97.40
2019-04-16T08:02:27.582Z,97.40
2019-04-16T08:04:56.419Z,97.60
2019-04-16T08:07:24.943Z,96.50
2019-04-16T08:09:53.362Z,95.60
2019-04-16T08:12:29.877Z,95.50
2019-04-16T08:14:51.886Z,93.60
2019-04-16T08:17:20.295Z,93.00
2019-04-16T08:19:49.412Z,93.50
2019-04-16T08:22:18.097Z,92.50
2019-04-16T08:24:50.678Z,93.20
2019-04-16T08:27:19.496Z,92.50
2019-04-16T08:29:47.967Z,91.90
2019-04-16T08:32:17.062Z,91.50
2019-04-16T08:34:45.556Z,91.70
2019-04-16T08:37:13.959Z,90.10
2019-04-16T08:39:42.360Z,88.20
2019-04-16T08:42:10.766Z,89.60
2019-04-16T08:44:39.168Z,86.10
2019-04-16T08:47:11.583Z,86.90
2019-04-16T08:49:37.990Z,86.40
2019-04-16T08:52:09.868Z,88.30
2019-04-16T08:54:36.516Z,86.10
2019-04-16T08:57:04.927Z,84.10
2019-04-16T08:59:33.370Z,84.10
2019-04-16T09:02:01.837Z,80.70
2019-04-16T09:04:34.124Z,81.90
2019-04-16T09:07:11.132Z,80.90
2019-04-16T09:09:38.361Z,79.10
2019-04-16T09:12:09.316Z,78.20
2019-04-16T09:14:39.394Z,78.80
2019-04-16T09:17:12.178Z,78.60
2019-04-16T09:19:42.486Z,77.70
2019-04-16T09:22:15.965Z,76.30
2019-04-16T09:24:42.972Z,76.30
2019-04-16T09:27:28.652Z,76.60
2019-04-16T09:30:11.021Z,71.10
2019-04-16T09:32:46.687Z,71.70
2019-04-16T09:35:32.824Z,71.60
2019-04-16T09:38:14.916Z,71.40
2019-04-16T09:40:50.675Z,70.40
2019-04-16T09:43:20.736Z,71.20
2019-04-16T09:45:49.134Z,69.90
2019-04-16T09:48:17.805Z,66.80
2019-04-16T09:50:47.787Z,64.50
2019-04-16T09:53:16.518Z,63.10
2019-04-16T09:55:47.545Z,61.40
2019-04-16T10:01:09.802Z,53.00
2019-04-16T10:03:39.842Z,50.00
2019-04-16T10:06:08.257Z,49.70
2019-04-16T10:08:36.854Z,48.50
2019-04-16T10:11:06.208Z,48.20
2019-04-16T10:13:36.238Z,48.40
2019-04-16T10:16:05.391Z,47.90
2019-04-16T10:18:35.115Z,48.70
2019-04-16T10:21:04.183Z,49.50
2019-04-16T10:23:34.295Z,48.10
2019-04-16T10:26:02.914Z,48.60
2019-04-16T10:28:33.917Z,47.80
2019-04-16T10:31:03.119Z,47.80
2019-04-16T10:33:31.540Z,48.10
2019-04-16T10:36:01.046Z,48.40
2019-04-16T10:38:31.696Z,49.70
2019-04-16T10:41:01.743Z,50.00
2019-04-16T10:43:43.816Z,50.20
2019-04-16T10:46:03.578Z,50.90
2019-04-16T10:48:33.608Z,52.30
2019-04-16T10:51:03.664Z,51.40
2019-04-16T10:53:33.833Z,51.70
2019-04-16T10:56:06.974Z,54.00
2019-04-16T10:58:37.046Z,52.70
2019-04-16T11:01:12.636Z,52.20
2019-04-16T11:03:42.790Z,52.70
2019-04-16T11:06:22.169Z,52.90
2019-04-16T11:08:50.581Z,55.10
2019-04-16T11:11:19.017Z,56.40
2019-04-16T11:13:59.809Z,57.30
2019-04-16T11:16:19.431Z,57.10
2019-04-16T11:18:47.967Z,56.90
2019-04-16T11:21:16.454Z,57.20
2019-04-16T11:23:44.918Z,57.80
2019-04-16T11:26:13.391Z,55.20
2019-04-16T11:28:41.922Z,55.30
2019-04-16T11:31:18.012Z,57.20
2019-04-16T11:33:46.418Z,55.70
2019-04-16T11:36:19.619Z,55.10
2019-04-16T11:38:44.963Z,56.80
2019-04-16T11:41:13.475Z,55.80
2019-04-16T11:43:41.941Z,59.20
2019-04-16T11:46:10.582Z,57.70
2019-04-16T11:48:39.018Z,58.60
2019-04-16T11:51:07.658Z,56.40
2019-04-16T11:53:36.167Z,56.50
2019-04-16T11:56:04.659Z,56.20
2019-04-16T11:58:46.075Z,58.00
2019-04-16T12:01:29.000Z,57.70
2019-04-16T12:03:59.166Z,57.40
2019-04-16T12:06:41.216Z,58.30
2019-04-16T12:09:27.292Z,58.00
2019-04-16T12:11:57.368Z,57.40
2019-04-16T12:14:45.704Z,58.30
2019-04-16T12:17:15.756Z,59.20
2019-04-16T12:19:45.841Z,57.80
2019-04-16T12:22:32.024Z,57.60
2019-04-16T12:25:07.843Z,58.40
2019-04-16T12:27:53.276Z,57.60
2019-04-16T12:30:23.384Z,58.50
2019-04-16T12:33:13.510Z,57.70
2019-04-16T12:35:45.218Z,58.40
2019-04-16T12:38:19.513Z,56.00
2019-04-16T12:40:55.283Z,57.30
2019-04-16T12:43:31.206Z,56.70
2019-04-16T12:46:01.783Z,57.10
2019-04-16T12:48:34.933Z,56.00
2019-04-16T12:51:14.220Z,56.40
2019-04-16T12:53:47.039Z,55.70
2019-04-16T12:56:29.050Z,58.00
2019-04-16T12:59:04.875Z,55.40
2019-04-16T13:01:36.499Z,58.40
2019-04-16T13:04:09.383Z,58.10
2019-04-16T13:06:51.483Z,58.30
2019-04-16T13:09:30.263Z,58.60
2019-04-16T13:12:00.583Z,56.30
2019-04-16T13:14:30.735Z,55.20
2019-04-16T13:17:07.239Z,56.50
2019-04-16T13:19:37.306Z,55.70
2019-04-16T13:22:07.625Z,56.30
2019-04-16T13:24:49.510Z,56.20
2019-04-16T13:27:19.559Z,55.80
2019-04-16T13:29:47.970Z,55.30
2019-04-16T13:32:16.527Z,54.90
2019-04-16T13:34:44.935Z,56.50
2019-04-16T13:37:13.339Z,54.90
2019-04-16T13:39:52.566Z,56.00
2019-04-16T13:42:20.986Z,53.60
2019-04-16T13:45:15.243Z,54.40
2019-04-16T13:47:30.167Z,56.50
2019-04-16T13:50:03.575Z,56.60
2019-04-16T13:52:30.834Z,55.10
2019-04-16T13:55:09.919Z,56.90
2019-04-16T13:57:38.679Z,55.30
2019-04-16T14:00:10.564Z,56.90
2019-04-16T14:02:47.797Z,56.20
2019-04-16T14:05:16.651Z,55.90
2019-04-16T14:07:45.058Z,55.80
2019-04-16T14:10:13.714Z,54.40
2019-04-16T14:12:42.751Z,57.30
2019-04-16T14:15:11.821Z,54.80
2019-04-16T14:17:52.570Z,53.70
2019-04-16T14:20:13.442Z,54.00
2019-04-16T14:22:41.879Z,51.90
2019-04-16T14:25:10.914Z,52.60
2019-04-16T14:27:39.408Z,51.20
2019-04-16T14:30:11.297Z,52.30
2019-04-16T14:32:40.062Z,49.60
2019-04-16T14:35:10.170Z,50.60
2019-04-16T14:37:38.570Z,47.20
2019-04-16T14:40:15.861Z,47.70
2019-04-16T14:42:44.258Z,48.30
2019-04-16T14:45:17.818Z,46.20
2019-04-16T14:47:46.242Z,45.90
2019-04-16T14:50:14.714Z,45.00
2019-04-16T14:52:43.114Z,45.10
2019-04-16T14:55:15.954Z,44.40
2019-04-16T14:58:02.162Z,44.80
2019-04-16T15:00:35.425Z,44.70
2019-04-16T15:03:20.522Z,45.20
2019-04-16T15:05:50.579Z,51.90
2019-04-16T15:08:20.635Z,47.10
2019-04-16T15:10:53.668Z,45.50
2019-04-16T15:13:23.703Z,44.60
2019-04-16T15:16:10.841Z,44.80
2019-04-16T15:18:37.509Z,45.90
2019-04-16T15:21:16.788Z,44.10
2019-04-16T15:24:02.920Z,44.60
2019-04-16T15:26:52.288Z,44.70
2019-04-16T15:29:23.313Z,45.20
2019-04-16T15:32:10.575Z,55.20
2019-04-16T15:34:42.852Z,54.50
2019-04-16T15:37:13.601Z,51.60
2019-04-16T15:39:47.616Z,51.70
2019-04-16T15:42:17.798Z,61.70
2019-04-16T15:44:59.726Z,56.50
2019-04-16T15:47:33.703Z,54.90
2019-04-16T15:50:05.010Z,53.60
2019-04-16T15:52:46.920Z,52.40
2019-04-16T15:55:16.994Z,50.60
2019-04-16T15:57:47.016Z,55.00
2019-04-16T16:00:17.699Z,52.50
2019-04-16T16:03:04.326Z,51.80
2019-04-16T16:05:37.145Z,51.00
2019-04-16T16:08:16.067Z,52.80
2019-04-16T16:10:54.826Z,51.90
2019-04-16T16:13:26.422Z,51.00
2019-04-16T16:15:54.911Z,50.10
2019-04-16T16:18:23.382Z,50.80
2019-04-16T16:20:51.791Z,52.00
2019-04-16T16:23:20.223Z,51.50
2019-04-16T16:25:48.626Z,51.20
2019-04-16T16:28:17.023Z,50.70
2019-04-16T16:30:45.443Z,50.80
2019-04-16T16:33:13.834Z,51.70
2019-04-16T16:35:56.557Z,51.00
2019-04-16T16:38:14.059Z,51.80
2019-04-16T16:40:42.518Z,54.30
2019-04-16T16:43:14.172Z,52.00
2019-04-16T16:45:43.176Z,52.10
2019-04-16T16:48:12.070Z,52.70
2019-04-16T16:50:41.085Z,52.90
2019-04-16T16:53:24.291Z,52.40
2019-04-16T16:55:53.571Z,53.30
2019-04-16T16:58:40.483Z,53.20
2019-04-16T17:01:16.956Z,53.10
2019-04-16T17:04:01.747Z,53.30
2019-04-16T17:06:30.994Z,53.40
2019-04-16T17:08:59.462Z,53.90
2019-04-16T17:11:27.875Z,53.80
2019-04-16T17:13:58.114Z,53.80
2019-04-16T17:16:26.460Z,54.20
2019-04-16T17:18:54.866Z,54.60
2019-04-16T17:21:23.276Z,55.00
2019-04-16T17:23:51.677Z,54.90
2019-04-16T17:26:20.080Z,54.20
2019-04-16T17:28:48.478Z,54.40
2019-04-16T17:31:16.883Z,55.10
2019-04-16T17:33:46.835Z,54.80
2019-04-16T17:36:15.238Z,54.90
2019-04-16T17:38:43.639Z,54.90
2019-04-16T17:41:13.683Z,55.30
2019-04-16T17:43:59.861Z,54.90
2019-04-16T17:46:36.298Z,56.40
2019-04-16T17:49:09.530Z,56.30
2019-04-16T17:51:39.599Z,56.50
2019-04-16T17:54:18.727Z,56.10
2019-04-16T17:56:48.822Z,56.60
2019-04-16T17:59:23.476Z,57.30
2019-04-16T18:02:09.802Z,58.70
2019-04-16T18:04:44.607Z,58.30
2019-04-16T18:07:17.493Z,58.30
2019-04-16T18:09:47.538Z,57.60
2019-04-16T18:12:29.423Z,57.60
2019-04-16T18:14:59.511Z,57.90
2019-04-16T18:17:46.842Z,58.00
2019-04-16T18:20:10.295Z,58.10
2019-04-16T18:22:56.713Z,59.40
2019-04-16T18:25:26.756Z,61.10
2019-04-16T18:28:05.402Z,63.80
2019-04-16T18:30:49.631Z,64.20
2019-04-16T18:33:25.865Z,60.80
2019-04-16T18:36:02.508Z,60.30
2019-04-16T18:38:32.624Z,60.80
2019-04-16T18:41:04.077Z,61.60
2019-04-16T18:43:34.294Z,62.20
2019-04-16T18:46:19.689Z,61.70
2019-04-16T18:48:49.739Z,61.70
2019-04-16T18:51:18.143Z,62.70
2019-04-16T18:53:46.553Z,63.80
2019-04-16T18:56:14.960Z,66.20
2019-04-16T18:58:43.355Z,65.90
2019-04-16T19:01:13.384Z,64.80
2019-04-16T19:03:42.109Z,65.00
2019-04-16T19:06:10.586Z,64.90
2019-04-16T19:08:41.933Z,65.00
2019-04-16T19:11:09.184Z,68.40
2019-04-16T19:13:37.588Z,66.40
2019-04-16T19:16:05.992Z,68.30
2019-04-16T19:18:34.403Z,69.70
2019-04-16T19:21:06.379Z,72.30
2019-04-16T19:23:34.871Z,75.40
2019-04-16T19:26:03.352Z,78.10
2019-04-16T19:28:31.753Z,78.90
2019-04-16T19:31:00.222Z,81.40
2019-04-16T19:33:33.415Z,82.50
2019-04-16T19:35:59.201Z,84.50
2019-04-16T19:38:27.598Z,84.70
2019-04-16T19:40:56.018Z,86.10
2019-04-16T19:43:27.947Z,87.00
2019-04-16T19:45:54.635Z,88.20
2019-04-16T19:48:34.841Z,88.30
2019-04-16T19:50:53.455Z,88.60
2019-04-16T19:53:21.870Z,89.90
2019-04-16T19:55:50.311Z,90.10
2019-04-16T19:58:18.785Z,90.60
2019-04-16T20:00:47.184Z,91.10
2019-04-16T20:03:15.606Z,91.80
2019-04-16T20:05:44.015Z,92.00
2019-04-16T20:08:12.490Z,92.60
2019-04-16T20:10:41.034Z,93.90
2019-04-16T20:13:09.440Z,94.50
2019-04-16T20:15:40.606Z,94.80
2019-04-16T20:18:07.970Z,95.40
2019-04-16T20:20:36.399Z,96.00
2019-04-16T20:23:04.802Z,96.50
2019-04-16T20:25:33.281Z,97.00
2019-04-16T20:28:01.746Z,97.40
2019-04-16T20:30:30.386Z,99.30
2019-04-16T20:33:00.435Z,99.90
2019-04-16T20:35:28.835Z,99.90
2019-04-16T20:37:57.238Z,99.90
2019-04-16T20:40:25.647Z,99.90
2019-04-16T20:42:54.107Z,99.90
2019-04-16T20:45:22.502Z,99.90
2019-04-16T20:47:50.925Z,99.90
2019-04-16T20:50:20.870Z,99.90
2019-04-16T20:52:49.578Z,99.90
2019-04-16T20:55:18.155Z,99.90
2019-04-16T20:57:46.559Z,99.90
2019-04-16T21:00:16.838Z,99.90
2019-04-16T21:02:48.190Z,99.90
2019-04-16T21:05:22.213Z,99.90
2019-04-16T21:07:47.182Z,99.90
2019-04-16T21:10:15.749Z,99.90
2019-04-16T21:12:45.492Z,99.90
2019-04-16T21:15:14.566Z,99.90
2019-04-16T21:17:42.994Z,99.90
2019-04-16T21:20:11.566Z,99.90
2019-04-16T21:22:39.971Z,99.90
2019-04-16T21:25:12.636Z,99.90
2019-04-16T21:27:46.138Z,99.90
2019-04-16T21:30:14.796Z,99.90
2019-04-16T21:32:54.042Z,99.90
2019-04-16T21:35:32.052Z,99.90
2019-04-16T21:38:04.571Z,99.90
2019-04-16T21:40:33.047Z,99.90
2019-04-16T21:43:06.315Z,99.90
2019-04-16T21:45:31.602Z,99.90
2019-04-16T21:48:00.009Z,99.90
2019-04-16T21:50:28.742Z,99.90
2019-04-16T21:52:57.161Z,99.90
2019-04-16T21:55:25.551Z,99.90
2019-04-16T21:57:53.954Z,99.90
2019-04-16T22:00:35.866Z,99.90
2019-04-16T22:03:09.398Z,99.90
2019-04-16T22:05:36.306Z,99.90
2019-04-16T22:08:04.818Z,99.90
2019-04-16T22:10:33.422Z,99.90
2019-04-16T22:13:01.837Z,99.90
2019-04-16T22:15:30.218Z,99.90
2019-04-16T22:17:58.635Z,99.90
2019-04-16T22:20:27.043Z,99.90
2019-04-16T22:22:55.440Z,99.90
2019-04-16T22:25:26.498Z,99.90
2019-04-16T22:27:53.970Z,99.90
2019-04-16T22:30:22.370Z,99.90
2019-04-16T22:32:50.774Z,99.90
2019-04-16T22:35:19.174Z,99.90
2019-04-16T22:37:47.575Z,99.90
2019-04-16T22:40:23.648Z,99.90
2019-04-16T22:43:09.949Z,99.90
2019-04-16T22:45:43.031Z,99.90
2019-04-16T22:48:11.446Z,99.90
2019-04-16T22:50:39.847Z,99.90
2019-04-16T22:53:08.250Z,99.90
2019-04-16T22:55:36.833Z,99.90
2019-04-16T22:58:05.425Z,99.90
2019-04-16T23:00:35.558Z,99.90
2019-04-16T23:03:04.031Z,99.90
2019-04-16T23:05:32.446Z,99.90
2019-04-16T23:08:00.838Z,99.90
2019-04-16T23:10:29.238Z,99.90
2019-04-16T23:13:00.353Z,99.90
2019-04-16T23:15:28.106Z,99.90
2019-04-16T23:17:56.540Z,99.90
2019-04-16T23:20:29.494Z,99.90
2019-04-16T23:22:55.135Z,99.90
2019-04-16T23:25:26.980Z,99.90
2019-04-16T23:27:53.657Z,99.90
2019-04-16T23:30:22.834Z,99.90
2019-04-16T23:32:51.238Z,99.90
2019-04-16T23:35:19.650Z,99.90
2019-04-16T23:37:48.053Z,99.90
2019-04-16T23:40:16.471Z,99.90
2019-04-16T23:43:02.707Z,99.90
2019-04-16T23:45:44.638Z,99.90
2019-04-16T23:48:20.245Z,99.90
2019-04-16T23:50:50.290Z,99.90
2019-04-16T23:53:20.326Z,99.90
2019-04-16T23:55:52.882Z,99.90
2019-04-16T23:58:29.476Z,99.90
